Time;durP1;ratioP1;P1;durP2;ratioP2;P2;SDS_P1;SDS_P2;PMS_P1;PMS_P2;Temp;Humidity;BMP_temperature;BMP_pressure;BME280_temperature;BME280_humidity;BME280_pressure;Samples;Min_cycle;Max_cycle;Signal;HPM_P1;HPM_P2
2022/11/24 00:00:16;;;;;;;1.30;1.00;;;22.80;73.50;;;;;;4989638;28;20830;-75
2022/11/24 00:02:43;;;;;;;1.37;0.77;;;22.70;73.60;;;;;;4996689;28;20951;-76
2022/11/24 00:05:09;;;;;;;1.20;0.90;;;22.60;73.70;;;;;;4997093;28;20474;-76
2022/11/24 00:07:36;;;;;;;1.30;0.90;;;22.60;73.80;;;;;;5002957;28;20466;-77
2022/11/24 00:10:05;;;;;;;1.00;0.80;;;22.50;73.90;;;;;;4997257;28;20459;-77
2022/11/24 00:12:31;;;;;;;1.47;0.90;;;22.50;74.00;;;;;;5000081;28;20981;-75
2022/11/24 00:14:58;;;;;;;1.50;0.97;;;22.50;74.20;;;;;;4990484;28;20468;-72
2022/11/24 00:17:25;;;;;;;1.20;0.80;;;22.50;74.30;;;;;;4989384;28;20475;-75
2022/11/24 00:19:51;;;;;;;2.10;1.07;;;22.40;74.40;;;;;;4995979;28;20464;-75
2022/11/24 00:22:18;;;;;;;1.50;0.80;;;22.40;74.80;;;;;;5000269;28;20451;-74
2022/11/24 00:24:45;;;;;;;1.47;1.10;;;22.40;75.30;;;;;;5005273;28;20962;-74
2022/11/24 00:27:13;;;;;;;1.20;0.90;;;22.40;74.90;;;;;;4992341;28;20486;-74
2022/11/24 00:29:39;;;;;;;1.50;0.93;;;22.50;74.60;;;;;;4986052;28;20461;-75
2022/11/24 00:32:06;;;;;;;5.00;0.93;;;22.50;74.70;;;;;;4997640;28;20485;-75
2022/11/24 00:34:33;;;;;;;1.10;0.80;;;22.40;74.60;;;;;;4997721;28;20459;-75
2022/11/24 00:37:00;;;;;;;1.00;0.90;;;22.40;74.80;;;;;;4999666;28;20530;-74
2022/11/24 00:39:26;;;;;;;5.07;1.40;;;22.30;74.70;;;;;;4993394;28;20463;-74
2022/11/24 00:41:53;;;;;;;2.50;0.97;;;22.30;74.90;;;;;;4991882;28;20464;-75
2022/11/24 00:44:21;;;;;;;2.00;1.00;;;22.30;75.00;;;;;;4989478;28;20950;-74
2022/11/24 00:46:48;;;;;;;1.77;0.73;;;22.20;74.90;;;;;;5002732;28;20462;-74
2022/11/24 00:49:15;;;;;;;1.30;0.90;;;22.20;74.90;;;;;;5000664;28;20451;-74
2022/11/24 00:51:41;;;;;;;1.10;0.80;;;22.20;75.10;;;;;;4991671;28;20468;-74
2022/11/24 00:54:08;;;;;;;1.60;0.90;;;22.20;75.10;;;;;;5003226;28;20567;-75
2022/11/24 00:56:35;;;;;;;1.30;0.80;;;22.20;75.20;;;;;;4992968;28;20467;-74
2022/11/24 00:59:01;;;;;;;1.10;0.80;;;22.10;75.60;;;;;;4990491;28;20460;-75
2022/11/24 01:01:31;;;;;;;1.00;0.80;;;22.20;75.60;;;;;;4992898;28;20556;-74
2022/11/24 01:04:00;;;;;;;1.30;1.00;;;22.20;75.50;;;;;;5004685;28;20448;-75
2022/11/24 01:06:28;;;;;;;0.90;0.70;;;22.20;75.40;;;;;;5001204;28;20501;-74
2022/11/24 01:08:57;;;;;;;2.00;0.90;;;22.10;75.40;;;;;;4989442;28;20459;-74
2022/11/24 01:11:25;;;;;;;2.40;0.97;;;22.10;75.60;;;;;;4995163;28;20466;-74
2022/11/24 01:13:54;;;;;;;1.10;0.90;;;22.00;75.60;;;;;;4991804;28;20990;-74
2022/11/24 01:16:24;;;;;;;2.00;1.00;;;22.00;75.60;;;;;;4993649;28;21025;-74
2022/11/24 01:18:52;;;;;;;1.50;0.93;;;22.00;75.70;;;;;;4998149;28;20200;-74
2022/11/24 01:21:20;;;;;;;1.17;0.80;;;22.00;75.80;;;;;;4991117;28;20472;-75
2022/11/24 01:23:46;;;;;;;1.00;0.70;;;22.00;75.70;;;;;;4997005;28;20492;-74
2022/11/24 01:26:16;;;;;;;2.10;1.10;;;21.90;75.70;;;;;;4993158;28;20983;-74
2022/11/24 01:28:43;;;;;;;1.10;0.87;;;21.90;75.80;;;;;;4988888;28;20860;-74
2022/11/24 01:31:10;;;;;;;0.83;0.70;;;21.80;75.90;;;;;;4992783;28;20456;-74
2022/11/24 01:33:37;;;;;;;3.83;1.00;;;21.80;76.20;;;;;;4980773;28;20496;-74
2022/11/24 01:36:06;;;;;;;1.00;0.77;;;21.80;76.60;;;;;;4992005;28;20209;-74
2022/11/24 01:38:33;;;;;;;1.43;1.20;;;21.90;76.40;;;;;;4992428;28;20471;-74
2022/11/24 01:41:01;;;;;;;1.23;0.90;;;21.90;76.40;;;;;;4985926;28;20958;-74
2022/11/24 01:43:28;;;;;;;2.17;0.90;;;21.80;76.30;;;;;;4998552;28;20984;-73
2022/11/24 01:45:56;;;;;;;1.23;0.83;;;21.80;76.30;;;;;;4990927;28;20201;-74
2022/11/24 01:48:27;;;;;;;1.10;0.80;;;21.80;76.50;;;;;;4987726;28;20492;-74
2022/11/24 01:51:06;;;;;;;1.30;0.97;;;21.80;76.60;;;;;;4996397;28;20631;-74
2022/11/24 01:53:34;;;;;;;1.90;1.10;;;21.70;76.50;;;;;;4991193;28;20546;-74
2022/11/24 01:56:02;;;;;;;1.00;0.90;;;21.70;76.60;;;;;;4989267;28;20540;-73
2022/11/24 01:58:32;;;;;;;1.17;0.98;;;21.70;76.60;;;;;;4995180;28;20228;-74
2022/11/24 02:00:59;;;;;;;1.33;0.88;;;21.60;76.60;;;;;;4997700;28;20205;-71
2022/11/24 02:03:32;;;;;;;1.63;0.80;;;21.60;76.80;;;;;;4986991;28;20207;-77
2022/11/24 02:06:04;;;;;;;1.98;0.90;;;21.60;77.40;;;;;;4989380;28;20208;-78
2022/11/24 02:08:39;;;;;;;1.52;1.00;;;21.50;77.80;;;;;;4995596;28;20213;-77
2022/11/24 02:11:06;;;;;;;3.17;0.80;;;21.60;78.00;;;;;;4991747;28;20208;-77
2022/11/24 02:13:35;;;;;;;4.20;0.90;;;21.60;77.80;;;;;;4982207;28;20218;-77
2022/11/24 02:16:03;;;;;;;1.65;1.00;;;21.60;77.70;;;;;;4990201;28;20687;-77
2022/11/24 02:18:29;;;;;;;1.10;0.80;;;21.50;77.70;;;;;;4990326;28;20201;-77
2022/11/24 02:20:56;;;;;;;1.60;0.95;;;21.50;77.70;;;;;;4989794;28;20198;-77
2022/11/24 02:23:27;;;;;;;1.25;0.93;;;21.50;77.70;;;;;;4998637;28;20196;-78
2022/11/24 02:26:04;;;;;;;1.42;0.73;;;21.40;77.80;;;;;;4985936;28;20192;-77
2022/11/24 02:28:32;;;;;;;1.10;0.90;;;21.50;78.00;;;;;;4993300;28;20193;-77
2022/11/24 02:31:00;;;;;;;0.93;0.75;;;21.40;78.70;;;;;;4988413;28;20208;-79
2022/11/24 02:33:27;;;;;;;1.45;1.00;;;21.40;78.00;;;;;;4991157;28;20586;-77
2022/11/24 02:35:54;;;;;;;2.15;0.88;;;21.30;78.00;;;;;;4991956;28;20207;-77
2022/11/24 02:38:30;;;;;;;1.10;0.75;;;21.40;78.10;;;;;;4988473;28;20209;-77
2022/11/24 02:40:58;;;;;;;1.30;0.80;;;21.30;78.50;;;;;;5001766;28;20270;-78
2022/11/24 02:43:25;;;;;;;1.00;0.90;;;21.30;78.80;;;;;;4992964;28;20224;-78
2022/11/24 02:45:53;;;;;;;1.45;0.80;;;21.30;78.60;;;;;;4999305;28;20203;-76
2022/11/24 02:48:19;;;;;;;1.45;0.90;;;21.30;78.90;;;;;;4993403;28;20222;-77
2022/11/24 02:50:46;;;;;;;1.42;1.13;;;21.30;79.40;;;;;;4992089;28;20687;-77
2022/11/24 02:53:13;;;;;;;1.00;0.77;;;21.30;78.70;;;;;;4995986;28;20556;-76
2022/11/24 02:55:39;;;;;;;1.08;0.70;;;21.20;78.70;;;;;;4988698;28;20956;-76
2022/11/24 02:58:06;;;;;;;1.40;0.90;;;21.20;78.80;;;;;;4991876;28;20197;-76
2022/11/24 03:00:33;;;;;;;1.10;0.90;;;21.20;78.90;;;;;;4999060;28;20201;-76
2022/11/24 03:03:01;;;;;;;1.50;0.90;;;21.10;78.90;;;;;;4993625;28;20193;-76
2022/11/24 03:05:28;;;;;;;1.20;0.75;;;21.10;78.90;;;;;;4988222;28;20200;-76
2022/11/24 03:07:55;;;;;;;1.10;0.80;;;21.10;78.90;;;;;;4999080;28;20189;-76
2022/11/24 03:10:21;;;;;;;1.45;1.20;;;21.10;79.00;;;;;;4993748;28;20197;-76
2022/11/24 03:12:48;;;;;;;1.20;0.95;;;21.10;79.00;;;;;;4991178;28;20616;-76
2022/11/24 03:15:15;;;;;;;1.23;0.95;;;21.00;79.30;;;;;;4991464;28;20233;-76
2022/11/24 03:17:41;;;;;;;0.90;0.70;;;21.10;79.80;;;;;;5000144;28;20209;-76
2022/11/24 03:20:11;;;;;;;1.00;0.70;;;21.10;79.60;;;;;;4992122;28;20209;-76
2022/11/24 03:22:38;;;;;;;1.10;0.80;;;21.00;79.50;;;;;;4989776;28;20203;-75
2022/11/24 03:25:05;;;;;;;1.20;0.98;;;21.00;79.60;;;;;;4992683;28;20193;-76
2022/11/24 03:27:32;;;;;;;1.20;0.90;;;21.10;79.80;;;;;;4995420;28;20208;-75
2022/11/24 03:29:59;;;;;;;0.90;0.70;;;21.00;79.70;;;;;;5003808;28;20751;-75
2022/11/24 03:32:25;;;;;;;1.30;0.93;;;21.00;79.90;;;;;;4988779;28;20667;-75
2022/11/24 03:34:52;;;;;;;1.00;0.80;;;21.00;79.90;;;;;;4992646;28;20580;-75
2022/11/24 03:37:21;;;;;;;1.35;0.80;;;21.00;80.00;;;;;;4995543;28;20200;-74
2022/11/24 03:39:48;;;;;;;2.13;0.70;;;20.90;79.90;;;;;;4991048;28;20208;-76
2022/11/24 03:42:14;;;;;;;2.20;1.08;;;20.90;80.00;;;;;;5002013;28;20405;-75
2022/11/24 03:44:41;;;;;;;1.13;0.70;;;20.90;80.00;;;;;;4992893;28;20193;-75
2022/11/24 03:47:09;;;;;;;0.93;0.60;;;20.90;80.00;;;;;;4987385;28;20221;-75
2022/11/24 03:49:35;;;;;;;1.15;0.88;;;20.90;80.00;;;;;;4995346;28;20737;-75
2022/11/24 03:52:02;;;;;;;1.80;0.80;;;20.90;80.00;;;;;;4993454;28;20223;-75
2022/11/24 03:54:30;;;;;;;1.92;0.90;;;20.90;80.20;;;;;;4987203;28;20695;-75
2022/11/24 03:56:57;;;;;;;1.55;0.90;;;20.80;80.70;;;;;;4998976;28;20204;-75
2022/11/24 03:59:24;;;;;;;1.13;0.88;;;20.80;80.80;;;;;;4993017;28;20200;-75
2022/11/24 04:01:50;;;;;;;1.60;0.90;;;20.90;80.90;;;;;;5000001;28;20193;-75
2022/11/24 04:04:17;;;;;;;1.42;0.90;;;20.80;80.70;;;;;;4991227;28;20194;-76
2022/11/24 04:06:44;;;;;;;1.63;0.80;;;20.80;80.70;;;;;;4990911;28;20209;-74
2022/11/24 04:09:10;;;;;;;1.10;0.70;;;20.80;80.80;;;;;;4984607;28;20201;-76
2022/11/24 04:14:22;;;;;;;1.00;0.70;;;20.80;80.90;;;;;;4987861;28;20328;-75
2022/11/24 04:16:49;;;;;;;1.30;0.82;;;20.70;80.80;;;;;;4997405;28;20220;-76
2022/11/24 04:19:16;;;;;;;1.00;0.80;;;20.70;80.90;;;;;;4991178;28;20205;-75
2022/11/24 04:21:43;;;;;;;0.93;0.70;;;20.70;80.90;;;;;;4986488;28;20205;-76
2022/11/24 04:24:09;;;;;;;1.15;0.82;;;20.70;80.90;;;;;;4990383;28;20545;-76
2022/11/24 04:26:37;;;;;;;2.75;1.00;;;20.70;81.70;;;;;;4992884;28;20572;-76
2022/11/24 04:29:04;;;;;;;1.38;0.90;;;20.70;81.00;;;;;;4997817;28;20197;-76
2022/11/24 04:31:31;;;;;;;1.10;0.90;;;20.70;81.00;;;;;;4998439;28;20208;-76
2022/11/24 04:33:57;;;;;;;1.27;0.70;;;20.70;81.10;;;;;;4989740;28;20217;-76
2022/11/24 04:36:24;;;;;;;0.90;0.70;;;20.70;81.10;;;;;;4994884;28;20649;-76
2022/11/24 04:38:52;;;;;;;1.00;0.80;;;20.60;81.00;;;;;;4987441;28;20197;-76
2022/11/24 04:41:19;;;;;;;1.10;0.80;;;20.70;81.60;;;;;;4993688;28;20201;-76
2022/11/24 04:43:48;;;;;;;1.00;0.75;;;20.80;81.80;;;;;;4992827;28;20666;-76
2022/11/24 04:46:15;;;;;;;1.10;0.90;;;21.10;80.80;;;;;;4998981;28;20200;-76
2022/11/24 04:48:43;;;;;;;1.15;1.00;;;21.40;80.20;;;;;;4999728;28;20221;-75
2022/11/24 04:51:11;;;;;;;1.10;0.73;;;21.50;79.60;;;;;;4996047;28;20204;-76
2022/11/24 04:53:38;;;;;;;0.90;0.80;;;21.60;79.30;;;;;;4994067;28;20215;-76
2022/11/24 04:56:05;;;;;;;1.03;0.80;;;21.70;79.00;;;;;;5007096;28;20200;-76
2022/11/24 04:58:32;;;;;;;1.10;0.80;;;21.80;78.80;;;;;;5005499;28;20857;-78
2022/11/24 05:01:00;;;;;;;1.10;0.70;;;21.80;78.50;;;;;;5000900;28;20198;-78
2022/11/24 05:03:27;;;;;;;1.17;0.70;;;21.90;78.40;;;;;;4992636;28;20456;-78
2022/11/24 05:05:53;;;;;;;1.83;0.80;;;22.00;78.10;;;;;;4991136;28;20460;-76
2022/11/24 05:08:20;;;;;;;1.13;0.80;;;22.00;78.00;;;;;;4991644;28;20460;-76
2022/11/24 05:10:46;;;;;;;1.20;0.80;;;22.10;77.90;;;;;;5003496;28;20475;-76
2022/11/24 05:13:13;;;;;;;1.60;0.80;;;22.10;77.60;;;;;;5011055;28;20440;-76
2022/11/24 05:15:41;;;;;;;0.97;0.77;;;22.10;77.50;;;;;;4999320;28;20247;-76
2022/11/24 05:18:14;;;;;;;1.00;0.70;;;22.10;77.50;;;;;;4987420;28;20463;-76
2022/11/24 05:20:43;;;;;;;1.10;0.80;;;22.10;77.50;;;;;;4991725;28;20460;-76
2022/11/24 05:23:10;;;;;;;1.27;1.00;;;22.10;77.50;;;;;;4989909;28;20510;-76
2022/11/24 05:25:37;;;;;;;1.10;0.70;;;22.10;77.60;;;;;;4995322;28;20471;-75
2022/11/24 05:28:07;;;;;;;0.80;0.60;;;22.20;77.50;;;;;;4997590;28;20463;-76
2022/11/24 05:30:34;;;;;;;1.00;0.87;;;22.20;77.20;;;;;;4998325;28;20867;-75
2022/11/24 05:33:05;;;;;;;0.90;0.70;;;22.30;77.00;;;;;;4987861;28;20467;-76
2022/11/24 05:35:34;;;;;;;1.00;0.77;;;22.30;76.90;;;;;;4997139;28;20435;-76
2022/11/24 05:38:00;;;;;;;1.10;0.80;;;22.20;76.80;;;;;;4991430;28;20467;-75
2022/11/24 05:40:27;;;;;;;1.27;0.70;;;22.20;76.80;;;;;;4993253;28;20479;-76
2022/11/24 05:42:54;;;;;;;1.00;0.73;;;22.20;76.80;;;;;;4981618;28;20441;-76
2022/11/24 05:45:22;;;;;;;1.20;0.90;;;22.20;76.80;;;;;;4994981;28;20437;-76
2022/11/24 05:47:49;;;;;;;1.60;0.80;;;22.20;76.80;;;;;;4989909;28;20460;-76
2022/11/24 05:50:18;;;;;;;1.27;0.73;;;22.30;76.80;;;;;;4993117;28;20967;-77
2022/11/24 05:52:47;;;;;;;1.40;0.73;;;22.30;76.50;;;;;;4991230;28;20453;-76
2022/11/24 05:55:14;;;;;;;1.30;0.90;;;22.40;76.50;;;;;;4991727;28;20842;-77
2022/11/24 05:57:42;;;;;;;1.17;0.70;;;22.40;76.30;;;;;;4998901;28;20483;-76
2022/11/24 06:00:10;;;;;;;0.90;0.70;;;22.40;76.10;;;;;;4997577;28;20462;-76
2022/11/24 06:02:36;;;;;;;1.00;0.70;;;22.50;76.20;;;;;;4995332;28;20466;-75
2022/11/24 06:05:03;;;;;;;0.87;0.60;;;22.50;76.00;;;;;;4992151;28;20488;-77
2022/11/24 06:07:30;;;;;;;1.00;0.90;;;22.50;75.90;;;;;;4996843;28;20476;-77
2022/11/24 06:09:58;;;;;;;1.50;0.80;;;22.50;75.70;;;;;;4997107;28;20468;-77
2022/11/24 06:12:25;;;;;;;0.97;0.70;;;22.60;75.70;;;;;;5000952;28;20454;-76
2022/11/24 06:14:51;;;;;;;1.03;0.70;;;22.60;75.60;;;;;;4992572;28;21028;-77
2022/11/24 06:17:18;;;;;;;0.93;0.70;;;22.60;75.60;;;;;;4989626;28;20461;-77
2022/11/24 06:19:46;;;;;;;1.10;0.80;;;22.60;75.50;;;;;;4992770;28;20982;-77
2022/11/24 06:22:13;;;;;;;1.03;0.80;;;22.70;75.60;;;;;;4986681;28;20464;-77
2022/11/24 06:24:39;;;;;;;1.50;0.80;;;22.70;75.40;;;;;;4994358;28;20483;-77
2022/11/24 06:27:07;;;;;;;1.10;0.83;;;22.70;75.30;;;;;;4998989;28;20830;-77
2022/11/24 06:29:34;;;;;;;1.13;0.87;;;22.70;75.30;;;;;;4992888;28;20875;-76
2022/11/24 06:32:01;;;;;;;1.10;0.77;;;22.70;75.20;;;;;;4995332;28;20456;-77
2022/11/24 06:34:28;;;;;;;0.90;0.70;;;22.70;75.10;;;;;;4992081;28;20480;-76
2022/11/24 06:36:54;;;;;;;0.90;0.60;;;22.70;75.00;;;;;;4991946;28;20827;-77
2022/11/24 06:39:21;;;;;;;0.90;0.70;;;22.80;74.90;;;;;;4989835;28;20467;-76
2022/11/24 06:41:49;;;;;;;1.00;0.80;;;22.80;74.90;;;;;;4998086;28;20463;-76
2022/11/24 06:44:18;;;;;;;1.00;0.70;;;22.80;74.80;;;;;;4998193;28;20452;-77
2022/11/24 06:46:45;;;;;;;1.00;0.77;;;22.80;74.80;;;;;;4995526;28;20483;-76
2022/11/24 06:49:11;;;;;;;2.90;0.77;;;22.80;74.60;;;;;;4989642;28;20460;-77
2022/11/24 06:51:38;;;;;;;1.03;0.80;;;22.80;74.60;;;;;;4993114;28;20452;-76
2022/11/24 06:54:07;;;;;;;1.00;0.80;;;22.90;74.80;;;;;;4990170;28;22120;-76
2022/11/24 06:56:33;;;;;;;1.30;0.97;;;22.90;74.60;;;;;;5004345;28;20456;-75
2022/11/24 06:59:01;;;;;;;1.00;0.70;;;22.90;74.50;;;;;;4999743;28;20811;-76
2022/11/24 07:01:31;;;;;;;1.20;0.80;;;22.90;74.50;;;;;;4989481;28;20955;-76
2022/11/24 07:03:58;;;;;;;1.00;0.80;;;22.90;74.40;;;;;;4990339;28;20459;-76
2022/11/24 07:06:27;;;;;;;1.20;0.80;;;22.90;74.30;;;;;;4990627;28;20467;-76
2022/11/24 07:08:53;;;;;;;1.00;0.70;;;23.00;74.30;;;;;;4993594;28;20447;-76
2022/11/24 07:11:22;;;;;;;1.10;0.80;;;22.90;74.20;;;;;;5002620;28;20456;-77
2022/11/24 07:13:50;;;;;;;1.00;0.73;;;23.00;74.20;;;;;;4991687;28;20467;-77
2022/11/24 07:16:18;;;;;;;1.00;0.70;;;23.00;74.10;;;;;;4997860;28;20476;-78
2022/11/24 07:18:48;;;;;;;1.00;0.70;;;23.00;74.10;;;;;;4991681;28;20931;-78
2022/11/24 07:21:15;;;;;;;2.07;0.70;;;23.00;74.10;;;;;;4993241;28;20547;-77
2022/11/24 07:23:42;;;;;;;1.40;1.00;;;23.10;74.10;;;;;;4988287;28;20457;-77
2022/11/24 07:26:10;;;;;;;1.10;0.70;;;23.00;74.10;;;;;;4992083;28;20827;-78
2022/11/24 07:28:38;;;;;;;0.90;0.70;;;23.10;74.10;;;;;;4994151;28;21021;-78
2022/11/24 07:31:06;;;;;;;1.10;0.73;;;23.10;74.20;;;;;;4997399;28;20971;-78
2022/11/24 07:33:33;;;;;;;1.20;0.80;;;23.10;74.10;;;;;;4986677;28;20495;-77
2022/11/24 07:36:02;;;;;;;1.40;0.77;;;23.10;74.10;;;;;;4991450;28;20476;-77
2022/11/24 07:38:30;;;;;;;1.10;0.80;;;23.10;74.10;;;;;;4989854;28;20460;-78
2022/11/24 07:41:00;;;;;;;4.40;0.90;;;23.10;74.10;;;;;;4992453;28;20452;-77
2022/11/24 07:43:26;;;;;;;1.00;0.73;;;23.10;74.10;;;;;;5001963;28;20459;-78
2022/11/24 07:45:53;;;;;;;1.20;0.80;;;23.10;74.10;;;;;;4987041;28;20803;-77
2022/11/24 07:48:20;;;;;;;1.03;0.80;;;23.10;74.10;;;;;;4991633;28;20467;-79
2022/11/24 07:50:47;;;;;;;1.10;0.90;;;23.10;74.10;;;;;;4990626;28;20463;-78
2022/11/24 07:53:15;;;;;;;1.10;0.80;;;23.10;74.10;;;;;;4992600;28;20436;-78
2022/11/24 07:55:42;;;;;;;1.10;0.77;;;23.10;74.10;;;;;;5007664;28;21008;-77
2022/11/24 07:58:08;;;;;;;2.33;0.77;;;23.10;74.10;;;;;;5006334;28;20486;-78
2022/11/24 08:00:35;;;;;;;1.00;0.80;;;23.10;74.10;;;;;;5007707;28;20879;-77
2022/11/24 08:03:02;;;;;;;0.90;0.67;;;23.10;74.20;;;;;;4991597;28;20966;-78
2022/11/24 08:05:29;;;;;;;1.17;0.70;;;23.00;74.10;;;;;;4987371;28;20468;-78
2022/11/24 08:07:55;;;;;;;1.53;0.87;;;22.90;74.20;;;;;;4991927;28;20456;-77
2022/11/24 08:10:24;;;;;;;0.90;0.73;;;22.90;74.30;;;;;;4989259;28;20461;-77
2022/11/24 08:12:51;;;;;;;1.07;0.70;;;22.80;74.40;;;;;;4993235;28;20939;-77
2022/11/24 08:15:18;;;;;;;1.00;0.70;;;22.80;74.60;;;;;;4999850;28;20870;-77
2022/11/24 08:17:45;;;;;;;0.90;0.70;;;22.70;74.80;;;;;;5001084;28;20456;-76
2022/11/24 08:20:12;;;;;;;1.13;0.70;;;22.60;74.90;;;;;;4988509;28;20482;-76
2022/11/24 08:22:42;;;;;;;1.87;0.80;;;22.50;75.00;;;;;;4994204;28;20532;-79
2022/11/24 08:25:09;;;;;;;1.77;0.70;;;22.50;76.20;;;;;;4995306;28;20985;-78
2022/11/24 08:27:38;;;;;;;1.00;0.70;;;22.40;75.70;;;;;;4994880;28;20459;-78
2022/11/24 08:30:07;;;;;;;1.63;0.70;;;22.60;75.70;;;;;;4991321;28;20455;-78
2022/11/24 08:32:33;;;;;;;2.20;0.90;;;22.70;75.30;;;;;;5003727;28;20460;-76
2022/11/24 08:35:00;;;;;;;2.17;0.80;;;22.90;75.10;;;;;;4997468;28;20492;-77
2022/11/24 08:37:28;;;;;;;1.17;0.70;;;23.10;74.70;;;;;;4991361;28;20459;-79
2022/11/24 08:39:54;;;;;;;12.80;1.00;;;23.30;74.40;;;;;;4986915;28;20475;-77
2022/11/24 08:42:21;;;;;;;2.03;0.80;;;23.30;74.20;;;;;;4998410;28;20468;-76
2022/11/24 08:44:50;;;;;;;4.10;1.10;;;23.40;75.00;;;;;;5001729;28;20476;-77
2022/11/24 08:47:17;;;;;;;2.80;0.80;;;23.40;73.10;;;;;;4991000;28;20472;-77
2022/11/24 08:49:44;;;;;;;1.50;0.80;;;23.50;72.70;;;;;;4995011;28;20459;-75
2022/11/24 08:52:10;;;;;;;4.63;1.17;;;23.40;72.20;;;;;;4993337;28;20486;-77
2022/11/24 08:54:37;;;;;;;6.00;0.90;;;23.40;72.90;;;;;;4996190;28;20978;-77
2022/11/24 08:57:04;;;;;;;2.70;1.20;;;23.40;72.30;;;;;;4993344;28;20812;-77
2022/11/24 08:59:30;;;;;;;7.73;1.23;;;23.40;72.10;;;;;;4989700;28;20471;-77
2022/11/24 09:01:59;;;;;;;4.67;1.07;;;23.40;72.00;;;;;;4988435;28;20828;-77
2022/11/24 09:04:26;;;;;;;2.50;1.10;;;23.40;72.00;;;;;;4985906;28;20947;-77
2022/11/24 09:06:53;;;;;;;3.00;1.20;;;23.30;70.70;;;;;;5001180;28;20937;-77
2022/11/24 09:09:20;;;;;;;7.53;1.50;;;23.20;70.60;;;;;;4990445;28;20456;-77
2022/11/24 09:11:47;;;;;;;12.70;1.33;;;23.10;72.50;;;;;;4995546;28;20827;-77
2022/11/24 09:14:14;;;;;;;2.10;1.10;;;23.20;72.40;;;;;;5001206;28;20459;-77
2022/11/24 09:16:41;;;;;;;1.23;0.90;;;23.20;72.40;;;;;;4995659;28;20572;-78
2022/11/24 09:19:10;;;;;;;3.30;1.00;;;23.10;72.50;;;;;;4997884;28;20468;-80
2022/11/24 09:21:37;;;;;;;2.90;1.20;;;23.20;72.70;;;;;;4995684;28;20467;-76
2022/11/24 09:24:06;;;;;;;2.53;0.83;;;23.20;72.60;;;;;;4994950;28;20462;-77
2022/11/24 09:26:34;;;;;;;4.07;1.30;;;23.20;72.60;;;;;;4999134;28;20552;-78
2022/11/24 09:29:02;;;;;;;2.60;1.10;;;23.20;72.60;;;;;;4988631;28;20467;-78
2022/11/24 09:31:32;;;;;;;1.63;0.90;;;23.20;72.60;;;;;;4995485;28;20464;-78
2022/11/24 09:33:59;;;;;;;1.73;1.27;;;23.20;72.60;;;;;;5003824;28;20466;-77
2022/11/24 09:36:27;;;;;;;2.93;1.20;;;23.20;72.60;;;;;;4995059;28;20472;-77
2022/11/24 09:38:54;;;;;;;1.70;1.20;;;23.20;72.60;;;;;;4991945;28;20471;-78
2022/11/24 09:41:41;;;;;;;1.87;0.90;;;23.20;72.60;;;;;;4995940;28;20499;-77
2022/11/24 09:44:22;;;;;;;2.90;1.10;;;23.20;72.60;;;;;;5000435;28;20456;-78
2022/11/24 09:47:01;;;;;;;1.77;0.97;;;23.30;72.70;;;;;;5000235;28;20985;-78
2022/11/24 09:49:33;;;;;;;2.17;0.87;;;23.30;72.60;;;;;;4990477;28;20471;-77
2022/11/24 09:52:08;;;;;;;1.40;1.10;;;23.30;72.60;;;;;;5010137;28;20444;-78
2022/11/24 09:54:37;;;;;;;1.60;0.97;;;23.30;72.50;;;;;;4989499;28;20463;-77
2022/11/24 09:57:05;;;;;;;1.73;1.13;;;23.30;72.50;;;;;;4996181;28;20874;-77
2022/11/24 09:59:33;;;;;;;1.20;1.10;;;23.30;72.40;;;;;;4999324;28;20464;-77
2022/11/24 10:02:00;;;;;;;1.10;0.80;;;23.30;72.40;;;;;;4999970;28;21052;-77
2022/11/24 10:04:29;;;;;;;5.70;1.70;;;23.40;72.50;;;;;;4995340;28;20478;-75
2022/11/24 10:07:07;;;;;;;2.00;1.10;;;23.30;72.80;;;;;;4986182;28;20464;-75
2022/11/24 10:09:54;;;;;;;3.70;1.73;;;23.30;74.20;;;;;;4991777;28;20841;-75
2022/11/24 10:12:31;;;;;;;1.40;1.00;;;23.30;74.70;;;;;;4991678;28;20451;-77
2022/11/24 10:15:10;;;;;;;2.07;1.00;;;23.30;74.00;;;;;;4987754;28;20467;-77
2022/11/24 10:17:54;;;;;;;2.03;1.00;;;23.30;74.00;;;;;;4985519;28;20479;-77
2022/11/24 10:20:31;;;;;;;2.23;0.70;;;23.30;73.70;;;;;;4990226;28;20487;-76
2022/11/24 10:23:17;;;;;;;1.87;1.00;;;23.40;73.70;;;;;;4987570;28;20436;-76
2022/11/24 10:25:51;;;;;;;2.53;0.90;;;23.40;73.50;;;;;;4988261;28;20448;-77
2022/11/24 10:28:18;;;;;;;1.80;0.90;;;23.30;73.30;;;;;;4985340;28;20449;-77
2022/11/24 10:30:44;;;;;;;1.40;1.00;;;23.40;73.30;;;;;;4975801;28;20929;-76
2022/11/24 10:33:18;;;;;;;2.07;1.23;;;23.40;73.30;;;;;;4983645;28;20468;-76
2022/11/24 10:35:49;;;;;;;1.40;1.00;;;23.40;73.20;;;;;;4984431;28;20479;-75
2022/11/24 10:38:30;;;;;;;1.50;0.93;;;23.40;73.10;;;;;;4982492;28;20437;-75
2022/11/24 10:41:01;;;;;;;1.67;0.80;;;23.40;73.10;;;;;;4984336;28;20445;-76
2022/11/24 10:43:28;;;;;;;1.30;0.80;;;23.40;72.90;;;;;;4985925;28;20449;-77
2022/11/24 10:45:59;;;;;;;1.30;0.80;;;23.40;72.90;;;;;;4985712;28;20452;-76
2022/11/24 10:48:28;;;;;;;4.07;0.97;;;23.40;72.90;;;;;;4981998;28;20540;-76
2022/11/24 10:51:06;;;;;;;1.00;0.80;;;23.40;72.90;;;;;;4982635;28;20982;-77
2022/11/24 10:53:36;;;;;;;1.67;0.90;;;23.40;72.90;;;;;;4990631;28;20972;-76
2022/11/24 10:56:04;;;;;;;1.77;0.90;;;23.40;72.80;;;;;;4994489;28;20483;-75
2022/11/24 10:58:33;;;;;;;3.83;1.37;;;23.40;72.70;;;;;;4978230;28;20472;-77
2022/11/24 11:01:03;;;;;;;6.65;2.28;;;23.20;65.10;;;;;;4991516;28;20449;-78
2022/11/24 11:03:33;;;;;;;8.65;2.72;;;18.00;66.70;;;;;;4989874;28;20201;-83
2022/11/24 11:06:08;;;;;;;7.63;2.78;;;17.00;72.30;;;;;;4989980;28;20193;-78
2022/11/24 11:08:38;;;;;;;6.65;3.88;;;16.90;74.60;;;;;;4988210;28;20236;-77
2022/11/24 11:11:19;;;;;;;3.30;2.10;;;16.70;75.10;;;;;;4985803;28;20631;-83
2022/11/24 11:13:55;;;;;;;8.10;3.67;;;16.60;76.80;;;;;;4989024;28;20244;-83
2022/11/24 11:16:29;;;;;;;8.13;3.50;;;16.10;77.90;;;;;;4987900;28;20224;-82
2022/11/24 11:18:56;;;;;;;6.22;2.90;;;16.20;79.20;;;;;;4980781;28;20208;-80
2022/11/24 11:21:28;;;;;;;5.22;3.22;;;16.30;79.60;;;;;;4997850;28;20196;-80
2022/11/24 11:23:56;;;;;;;5.78;3.60;;;15.80;80.40;;;;;;4989556;28;20196;-78
2022/11/24 11:26:33;;;;;;;5.07;3.08;;;15.70;82.40;;;;;;4992119;28;20400;-79
2022/11/24 11:29:03;;;;;;;9.63;3.63;;;15.70;84.10;;;;;;4978060;28;20201;-81
2022/11/24 11:31:31;;;;;;;7.03;3.85;;;15.80;82.90;;;;;;4992072;28;20548;-79
2022/11/24 11:34:02;;;;;;;5.60;2.95;;;15.60;84.90;;;;;;4989846;28;20208;-81
2022/11/24 11:36:31;;;;;;;7.80;3.45;;;15.80;85.60;;;;;;4988807;28;20579;-81
2022/11/24 11:39:00;;;;;;;9.85;3.10;;;15.60;85.40;;;;;;4990679;28;20537;-81
2022/11/24 11:41:32;;;;;;;7.63;3.78;;;15.50;87.10;;;;;;4992670;28;20215;-81
2022/11/24 11:44:10;;;;;;;9.48;3.28;;;16.00;87.30;;;;;;4992582;28;20204;-81
2022/11/24 11:46:37;;;;;;;7.45;2.95;;;15.50;87.50;;;;;;4992362;28;20192;-79
2022/11/24 11:49:04;;;;;;;6.32;2.53;;;15.50;88.80;;;;;;4991664;28;20667;-79
2022/11/24 11:51:41;;;;;;;14.55;3.58;;;15.80;88.20;;;;;;5003620;28;20208;-78
2022/11/24 11:54:18;;;;;;;6.93;2.85;;;15.60;88.20;;;;;;5003089;28;20200;-79
2022/11/24 11:56:47;;;;;;;11.32;3.53;;;15.00;90.20;;;;;;4999314;28;20226;-82
2022/11/24 11:59:28;;;;;;;7.35;3.15;;;15.20;90.70;;;;;;4999855;28;20682;-82
2022/11/24 12:02:16;;;;;;;6.80;2.05;;;15.30;90.50;;;;;;4988151;28;20209;-79
2022/11/24 12:04:49;;;;;;;4.32;2.42;;;17.30;90.80;;;;;;4995839;28;20285;-81
2022/11/24 12:07:38;;;;;;;7.55;2.40;;;18.40;88.30;;;;;;5006709;28;20193;-80
2022/11/24 12:10:19;;;;;;;4.93;2.03;;;18.80;86.50;;;;;;4997900;28;20189;-81
2022/11/24 12:13:10;;;;;;;6.80;2.50;;;19.40;84.80;;;;;;4994985;28;20197;-80
2022/11/24 12:15:40;;;;;;;2.65;1.95;;;19.80;83.40;;;;;;4996699;28;20711;-80
2022/11/24 12:18:18;;;;;;;3.00;1.50;;;20.10;82.60;;;;;;4994281;28;20288;-80
2022/11/24 12:20:56;;;;;;;5.38;2.08;;;20.30;82.10;;;;;;4994627;28;20201;-77
2022/11/24 12:23:36;;;;;;;3.28;1.70;;;20.40;82.30;;;;;;4977857;28;20205;-79
2022/11/24 12:26:07;;;;;;;2.90;1.23;;;20.40;81.80;;;;;;4991992;28;20196;-78
2022/11/24 12:28:46;;;;;;;3.40;1.67;;;20.60;81.60;;;;;;4997327;28;20201;-78
2022/11/24 12:31:20;;;;;;;2.72;1.40;;;20.70;82.20;;;;;;4995982;28;20208;-79
2022/11/24 12:34:21;;;;;;;3.50;1.65;;;20.80;81.20;;;;;;4999229;28;20208;-80
2022/11/24 12:37:06;;;;;;;2.25;1.40;;;20.80;81.00;;;;;;4996626;28;20219;-78
2022/11/24 12:39:39;;;;;;;5.90;1.60;;;20.90;81.80;;;;;;4994261;28;20253;-78
2022/11/24 12:42:30;;;;;;;4.15;3.65;;;20.90;81.00;;;;;;4996780;28;20637;-77
2022/11/24 12:45:14;;;;;;;3.50;1.48;;;21.00;80.80;;;;;;4977595;28;20665;-79
2022/11/24 12:47:54;;;;;;;5.57;1.90;;;21.00;80.70;;;;;;4992553;28;20640;-81
2022/11/24 12:50:24;;;;;;;3.13;1.73;;;21.10;80.60;;;;;;4993218;28;20251;-79
2022/11/24 12:52:55;;;;;;;2.38;1.63;;;21.10;81.20;;;;;;4996786;28;20289;-80
2022/11/24 12:55:22;;;;;;;1.65;1.40;;;21.20;80.40;;;;;;4995983;28;20212;-79
2022/11/24 12:57:58;;;;;;;3.90;1.45;;;21.20;80.50;;;;;;5007691;28;20651;-78